createdAt,value
2019-05-26T00:01:44.694Z,100420.05
2019-05-26T00:04:13.129Z,100414.55
2019-05-26T00:06:41.633Z,100413.87
2019-05-26T00:09:09.863Z,100407.18
2019-05-26T00:11:37.998Z,100406.45
2019-05-26T00:14:06.217Z,100409.63
2019-05-26T00:16:34.310Z,100408.84
2019-05-26T00:19:02.592Z,100402.63
2019-05-26T00:21:30.723Z,100403.99
2019-05-26T00:23:58.817Z,100400.30
2019-05-26T00:26:27.003Z,100399.49
2019-05-26T00:28:55.102Z,100404.01
2019-05-26T00:31:23.271Z,100395.19
2019-05-26T00:33:51.451Z,100398.00
2019-05-26T00:36:19.653Z,100399.00
2019-05-26T00:38:47.779Z,100391.55
2019-05-26T00:41:15.935Z,100395.59
2019-05-26T00:43:44.051Z,100386.81
2019-05-26T00:46:12.165Z,100383.20
2019-05-26T00:48:40.258Z,100384.27
2019-05-26T00:51:08.473Z,100379.53
2019-05-26T00:53:36.713Z,100373.26
2019-05-26T00:56:04.848Z,100364.48
2019-05-26T00:58:33.007Z,100365.87
2019-05-26T01:01:01.136Z,100364.64
2019-05-26T01:03:29.522Z,100367.05
2019-05-26T01:05:57.701Z,100363.50
2019-05-26T01:08:25.795Z,100363.57
2019-05-26T01:10:53.943Z,100362.67
2019-05-26T01:13:22.090Z,100366.23
2019-05-26T01:15:50.274Z,100367.17
2019-05-26T01:18:18.521Z,100371.06
2019-05-26T01:20:46.615Z,100372.69
2019-05-26T01:23:14.767Z,100368.68
2019-05-26T01:25:43.589Z,100361.19
2019-05-26T01:28:11.771Z,100351.84
2019-05-26T01:30:40.339Z,100359.36
2019-05-26T01:33:09.145Z,100352.31
2019-05-26T01:35:41.271Z,100351.98
2019-05-26T01:38:23.059Z,100349.44
2019-05-26T01:40:44.300Z,100342.86
2019-05-26T01:43:13.605Z,100348.66
2019-05-26T01:45:41.737Z,100340.31
2019-05-26T01:48:10.493Z,100345.78
2019-05-26T01:50:38.625Z,100348.55
2019-05-26T01:53:07.527Z,100349.41
2019-05-26T01:55:35.719Z,100350.41
2019-05-26T01:58:04.186Z,100351.37
2019-05-26T02:00:32.372Z,100342.09
2019-05-26T02:03:00.528Z,100342.13
2019-05-26T02:05:28.707Z,100341.66
2019-05-26T02:07:56.860Z,100133.09
2019-05-26T02:10:25.153Z,100347.46
2019-05-26T02:12:53.380Z,100351.09
2019-05-26T02:15:26.476Z,100347.17
2019-05-26T02:17:54.663Z,100344.16
2019-05-26T02:20:23.065Z,100346.34
2019-05-26T02:22:51.236Z,100342.80
2019-05-26T02:25:19.868Z,100341.87
2019-05-26T02:27:48.123Z,100343.67
2019-05-26T02:30:55.633Z,100337.59
2019-05-26T02:33:23.761Z,100331.38
2019-05-26T02:35:51.850Z,100335.10
2019-05-26T02:38:19.940Z,100335.85
2019-05-26T02:40:48.029Z,100331.27
2019-05-26T02:43:16.248Z,100334.08
2019-05-26T02:45:44.399Z,100337.41
2019-05-26T02:48:12.531Z,100340.50
2019-05-26T02:50:40.662Z,100328.19
2019-05-26T02:53:08.859Z,100327.55
2019-05-26T02:55:36.961Z,100335.75
2019-05-26T02:58:05.154Z,100335.30
2019-05-26T03:00:44.306Z,100331.80
2019-05-26T03:03:13.467Z,100323.12
2019-05-26T03:05:44.377Z,100323.05
2019-05-26T03:08:13.044Z,100321.11
2019-05-26T03:10:41.805Z,100323.72
2019-05-26T03:13:11.410Z,100318.47
2019-05-26T03:15:40.873Z,100313.60
2019-05-26T03:18:09.673Z,100313.60
2019-05-26T03:20:41.517Z,100320.66
2019-05-26T03:23:10.255Z,100313.36
2019-05-26T03:25:38.639Z,100307.78
2019-05-26T03:28:06.893Z,100312.16
2019-05-26T03:30:35.019Z,100313.56
2019-05-26T03:33:03.182Z,100313.73
2019-05-26T03:35:31.349Z,100316.00
2019-05-26T03:37:59.486Z,100310.80
2019-05-26T03:40:27.660Z,100308.31
2019-05-26T03:42:55.795Z,100307.98
2019-05-26T03:45:44.961Z,100306.92
2019-05-26T03:48:13.128Z,100310.42
2019-05-26T03:50:41.258Z,100311.03
2019-05-26T03:53:09.424Z,100304.31
2019-05-26T03:55:37.564Z,100302.08
2019-05-26T03:58:05.686Z,100302.05
2019-05-26T04:00:33.856Z,100291.91
2019-05-26T04:03:02.127Z,100285.48
2019-05-26T04:05:30.238Z,100285.16
2019-05-26T04:08:03.751Z,100282.48
2019-05-26T04:10:28.213Z,100274.70
2019-05-26T04:12:56.389Z,100280.09
2019-05-26T04:15:24.594Z,100272.47
2019-05-26T04:17:52.893Z,100276.55
2019-05-26T04:20:21.040Z,100274.38
2019-05-26T04:22:49.142Z,100270.44
2019-05-26T04:25:17.293Z,100274.91
2019-05-26T04:27:45.389Z,100270.17
2019-05-26T04:30:13.667Z,100261.42
2019-05-26T04:32:41.841Z,100268.41
2019-05-26T04:35:10.162Z,100264.94
2019-05-26T04:37:38.991Z,100256.33
2019-05-26T04:40:25.098Z,100265.24
2019-05-26T04:42:37.107Z,100266.17
2019-05-26T04:45:05.209Z,100261.87
2019-05-26T04:47:33.361Z,100264.81
2019-05-26T04:50:01.503Z,100263.63
2019-05-26T04:52:29.713Z,100265.20
2019-05-26T04:54:57.831Z,100263.64
2019-05-26T04:57:26.100Z,100266.04
2019-05-26T04:59:54.210Z,100259.63
2019-05-26T05:02:22.384Z,100265.20
2019-05-26T05:04:50.516Z,100260.59
2019-05-26T05:07:18.698Z,100259.53
2019-05-26T05:09:46.917Z,100264.48
2019-05-26T05:12:15.176Z,100262.40
2019-05-26T05:14:43.337Z,100266.66
2019-05-26T05:17:11.477Z,100264.28
2019-05-26T05:19:39.633Z,100266.59
2019-05-26T05:22:07.709Z,100261.50
2019-05-26T05:24:35.862Z,100258.06
2019-05-26T05:27:04.134Z,100254.69
2019-05-26T05:29:32.266Z,100263.59
2019-05-26T05:32:00.372Z,100261.84
2019-05-26T05:34:28.525Z,100255.16
2019-05-26T05:36:56.636Z,100251.92
2019-05-26T05:39:24.808Z,100248.41
2019-05-26T05:41:53.091Z,100250.13
2019-05-26T05:44:21.284Z,100245.88
2019-05-26T05:46:49.430Z,100237.29
2019-05-26T05:49:17.605Z,100236.80
2019-05-26T05:51:45.752Z,100230.97
2019-05-26T05:54:13.878Z,100223.06
2019-05-26T05:56:42.055Z,100226.91
2019-05-26T05:59:10.386Z,100235.53
2019-05-26T06:01:38.684Z,100231.48
2019-05-26T06:04:06.844Z,100236.02
2019-05-26T06:06:34.979Z,100235.58
2019-05-26T06:09:03.190Z,100228.30
2019-05-26T06:11:31.371Z,100231.03
2019-05-26T06:13:59.516Z,100229.59
2019-05-26T06:16:28.170Z,100227.65
2019-05-26T06:18:56.366Z,100232.97
2019-05-26T06:21:25.108Z,100228.80
2019-05-26T06:23:53.319Z,100229.74
2019-05-26T06:26:21.552Z,100238.45
2019-05-26T06:28:52.309Z,100231.45
2019-05-26T06:31:19.594Z,100232.56
2019-05-26T06:33:47.826Z,100232.56
2019-05-26T06:36:15.982Z,100228.13
2019-05-26T06:38:44.188Z,100234.52
2019-05-26T06:41:12.356Z,100232.61
2019-05-26T06:43:40.605Z,100238.20
2019-05-26T06:46:08.755Z,100227.51
2019-05-26T06:48:36.866Z,100232.48
2019-05-26T06:51:05.195Z,100236.70
2019-05-26T06:53:37.164Z,100229.23
2019-05-26T06:56:03.661Z,100228.73
2019-05-26T06:58:31.788Z,100232.58
2019-05-26T07:01:00.045Z,100236.08
2019-05-26T07:03:28.306Z,100234.30
2019-05-26T07:05:56.438Z,100237.64
2019-05-26T07:08:24.574Z,100230.34
2019-05-26T07:10:52.772Z,100231.73
2019-05-26T07:13:20.924Z,100223.45
2019-05-26T07:15:49.053Z,100227.17
2019-05-26T07:18:17.222Z,100228.78
2019-05-26T07:20:45.432Z,100224.04
2019-05-26T07:23:13.704Z,100215.75
2019-05-26T07:25:41.864Z,100200.59
2019-05-26T07:28:10.157Z,100200.59
2019-05-26T07:30:38.449Z,100215.54
2019-05-26T07:33:06.639Z,100218.37
2019-05-26T07:35:34.755Z,100217.79
2019-05-26T07:38:02.929Z,100212.88
2019-05-26T07:40:31.122Z,100210.33
2019-05-26T07:42:59.339Z,100203.51
2019-05-26T07:45:27.514Z,100203.51
2019-05-26T07:47:55.790Z,100208.74
2019-05-26T07:50:24.053Z,100212.27
2019-05-26T07:52:52.249Z,100210.48
2019-05-26T07:55:20.503Z,100206.10
2019-05-26T07:57:48.653Z,100201.73
2019-05-26T08:00:17.031Z,100206.28
2019-05-26T08:02:45.174Z,100199.39
2019-05-26T08:05:13.457Z,100205.05
2019-05-26T08:07:41.597Z,100201.47
2019-05-26T08:10:09.890Z,100197.02
2019-05-26T08:12:37.995Z,100198.13
2019-05-26T08:15:07.746Z,100208.09
2019-05-26T08:17:35.912Z,100210.31
2019-05-26T08:20:04.516Z,100215.05
2019-05-26T08:22:32.723Z,100213.89
2019-05-26T08:25:00.955Z,100217.72
2019-05-26T08:27:29.134Z,100209.06
2019-05-26T08:29:57.313Z,100208.69
2019-05-26T08:32:25.531Z,100218.48
2019-05-26T08:34:53.817Z,100216.49
2019-05-26T08:37:22.047Z,100227.63
2019-05-26T08:39:50.181Z,100198.05
2019-05-26T08:42:26.939Z,100209.87
2019-05-26T08:44:48.274Z,100201.95
2019-05-26T08:47:16.440Z,100204.28
2019-05-26T08:49:44.554Z,100202.95
2019-05-26T08:52:12.695Z,100200.48
2019-05-26T08:54:40.894Z,100201.48
2019-05-26T08:57:09.263Z,100194.04
2019-05-26T08:59:37.449Z,100191.39
2019-05-26T09:02:05.621Z,100194.09
2019-05-26T09:04:33.738Z,100192.42
2019-05-26T09:07:01.832Z,100193.02
2019-05-26T09:09:30.016Z,100179.63
2019-05-26T09:11:58.174Z,100176.37
2019-05-26T09:14:26.313Z,100176.56
2019-05-26T09:16:54.480Z,100169.15
2019-05-26T09:19:22.659Z,100178.49
2019-05-26T09:21:50.911Z,100164.08
2019-05-26T09:24:19.024Z,100172.37
2019-05-26T09:26:47.212Z,100166.14
2019-05-26T09:29:15.433Z,100159.52
2019-05-26T09:31:43.720Z,100160.98
2019-05-26T09:34:11.860Z,100166.09
2019-05-26T09:36:40.093Z,100164.52
2019-05-26T09:39:09.094Z,100173.20
2019-05-26T09:41:37.349Z,100175.88
2019-05-26T09:44:06.617Z,100163.11
2019-05-26T09:46:34.893Z,100163.57
2019-05-26T09:49:03.060Z,100175.32
2019-05-26T09:51:31.251Z,100163.45
2019-05-26T09:54:02.011Z,100169.39
2019-05-26T09:56:28.363Z,100169.61
2019-05-26T09:58:56.727Z,100169.64
2019-05-26T10:01:24.966Z,100174.59
2019-05-26T10:03:53.133Z,100165.88
2019-05-26T10:06:21.414Z,100165.84
2019-05-26T10:08:49.712Z,100168.90
2019-05-26T10:11:17.937Z,100165.02
2019-05-26T10:13:46.221Z,100159.53
2019-05-26T10:16:14.499Z,100156.25
2019-05-26T10:18:42.762Z,100165.33
2019-05-26T10:21:10.888Z,100169.78
2019-05-26T10:23:39.084Z,100157.65
2019-05-26T10:26:07.278Z,100154.52
2019-05-26T10:28:35.508Z,100152.45
2019-05-26T10:31:03.835Z,100150.72
2019-05-26T10:33:32.025Z,99951.92
2019-05-26T10:36:00.195Z,100144.08
2019-05-26T10:38:28.413Z,100153.13
2019-05-26T10:40:56.544Z,100155.45
2019-05-26T10:43:24.718Z,100151.91
2019-05-26T10:45:52.957Z,100155.08
2019-05-26T10:48:21.118Z,100162.37
2019-05-26T10:50:49.339Z,100151.25
2019-05-26T10:53:17.555Z,100156.36
2019-05-26T10:55:45.823Z,100149.48
2019-05-26T10:58:14.019Z,100150.57
2019-05-26T11:00:42.227Z,100142.73
2019-05-26T11:03:10.465Z,100151.48
2019-05-26T11:05:38.621Z,100146.76
2019-05-26T11:08:06.895Z,100141.66
2019-05-26T11:10:35.067Z,100137.94
2019-05-26T11:13:03.369Z,100135.59
2019-05-26T11:15:31.601Z,100136.26
2019-05-26T11:17:59.814Z,100133.25
2019-05-26T11:20:28.203Z,100130.89
2019-05-26T11:22:56.409Z,100126.73
2019-05-26T11:25:24.567Z,100128.55
2019-05-26T11:27:53.489Z,100125.00
2019-05-26T11:30:22.066Z,100117.98
2019-05-26T11:32:50.268Z,100114.06
2019-05-26T11:35:19.215Z,100116.90
2019-05-26T11:37:47.435Z,100110.02
2019-05-26T11:40:16.819Z,100110.02
2019-05-26T11:42:45.379Z,100109.38
2019-05-26T11:45:14.269Z,100113.88
2019-05-26T11:47:42.508Z,100108.45
2019-05-26T11:50:10.982Z,100103.63
2019-05-26T11:52:39.327Z,100106.97
2019-05-26T11:55:08.129Z,100107.03
2019-05-26T11:57:37.280Z,100110.19
2019-05-26T12:00:06.915Z,100098.47
2019-05-26T12:02:35.078Z,100096.91
2019-05-26T12:05:03.369Z,100096.00
2019-05-26T12:07:31.895Z,100097.23
2019-05-26T12:10:00.194Z,100104.64
2019-05-26T12:12:28.427Z,100095.61
2019-05-26T12:14:56.889Z,100095.72
2019-05-26T12:17:25.088Z,100097.13
2019-05-26T12:19:53.717Z,100089.80
2019-05-26T12:22:21.954Z,100094.34
2019-05-26T12:24:50.146Z,100088.05
2019-05-26T12:27:18.298Z,100080.37
2019-05-26T12:29:46.542Z,100067.65
2019-05-26T12:32:14.783Z,100071.09
2019-05-26T12:34:43.168Z,100074.80
2019-05-26T12:37:11.378Z,100073.41
2019-05-26T12:39:39.693Z,100064.69
2019-05-26T12:42:07.900Z,100069.61
2019-05-26T12:44:48.616Z,100063.39
2019-05-26T12:47:06.101Z,100060.63
2019-05-26T12:49:34.375Z,100060.22
2019-05-26T12:52:02.582Z,100050.72
2019-05-26T12:54:31.106Z,100047.82
2019-05-26T12:56:59.306Z,100048.00
2019-05-26T12:59:27.446Z,100045.05
2019-05-26T13:01:55.735Z,100045.03
2019-05-26T13:04:23.872Z,100042.28
2019-05-26T13:06:52.097Z,100051.72
2019-05-26T13:09:20.255Z,100038.73
2019-05-26T13:11:48.642Z,100041.77
2019-05-26T13:14:16.806Z,100047.60
2019-05-26T13:16:44.976Z,100054.28
2019-05-26T13:19:13.193Z,99747.92
2019-05-26T13:21:41.370Z,100040.22
2019-05-26T13:24:09.580Z,100035.33
2019-05-26T13:26:37.789Z,100036.75
2019-05-26T13:29:06.053Z,100030.95
2019-05-26T13:31:34.210Z,100016.46
2019-05-26T13:34:02.455Z,100033.07
2019-05-26T13:36:30.586Z,100037.09
2019-05-26T13:38:58.859Z,100024.24
2019-05-26T13:41:26.987Z,100021.31
2019-05-26T13:43:55.262Z,100023.83
2019-05-26T13:46:23.474Z,100025.70
2019-05-26T13:48:51.655Z,100018.27
2019-05-26T13:51:19.886Z,100018.98
2019-05-26T13:53:48.115Z,100003.94
2019-05-26T13:56:16.295Z,100011.17
2019-05-26T13:58:44.464Z,100025.83
2019-05-26T14:01:12.970Z,100011.29
2019-05-26T14:03:41.209Z,100014.31
2019-05-26T14:06:09.442Z,100007.47
2019-05-26T14:08:37.630Z,100000.81
2019-05-26T14:11:05.806Z,100005.73
2019-05-26T14:13:34.103Z,99996.16
2019-05-26T14:16:03.308Z,100004.35
2019-05-26T14:18:32.029Z,99992.27
2019-05-26T14:21:00.212Z,99997.66
2019-05-26T14:23:28.356Z,99991.34
2019-05-26T14:25:56.607Z,99986.63
2019-05-26T14:28:24.797Z,99984.55
2019-05-26T14:30:52.954Z,99979.08
2019-05-26T14:33:21.250Z,99977.00
2019-05-26T14:35:49.475Z,99976.16
2019-05-26T14:38:17.695Z,99978.77
2019-05-26T14:40:45.872Z,99961.20
2019-05-26T14:43:14.077Z,99962.03
2019-05-26T14:45:52.825Z,99960.32
2019-05-26T14:48:12.176Z,99949.52
2019-05-26T14:50:41.192Z,99947.69
2019-05-26T14:53:09.493Z,99950.61
2019-05-26T14:55:38.090Z,99943.58
2019-05-26T14:58:15.573Z,99941.48
2019-05-26T15:00:36.344Z,99939.26
2019-05-26T15:03:04.527Z,99936.26
2019-05-26T15:05:32.759Z,99932.83
2019-05-26T15:08:00.943Z,99936.78
2019-05-26T15:10:29.154Z,99935.25
2019-05-26T15:12:57.325Z,99936.20
2019-05-26T15:15:25.521Z,99934.84
2019-05-26T15:17:53.754Z,99936.83
2019-05-26T15:20:21.932Z,99926.53
2019-05-26T15:22:50.129Z,99937.66
2019-05-26T15:25:18.398Z,99932.98
2019-05-26T15:27:46.867Z,99927.91
2019-05-26T15:30:17.040Z,99928.26
2019-05-26T15:32:45.290Z,99926.14
2019-05-26T15:35:13.469Z,99925.91
2019-05-26T15:37:41.719Z,99910.39
2019-05-26T15:40:10.080Z,99917.30
2019-05-26T15:42:38.207Z,99905.77
2019-05-26T15:45:07.043Z,99908.17
2019-05-26T15:47:35.251Z,99909.31
2019-05-26T15:50:03.467Z,99907.57
2019-05-26T15:52:31.770Z,99900.74
2019-05-26T15:54:59.954Z,99899.89
2019-05-26T15:57:28.265Z,99906.66
2019-05-26T15:59:56.382Z,99898.73
2019-05-26T16:02:24.600Z,99890.50
2019-05-26T16:04:52.779Z,99883.95
2019-05-26T16:07:20.985Z,99890.61
2019-05-26T16:09:49.135Z,99884.31
2019-05-26T16:12:17.289Z,99897.91
2019-05-26T16:14:45.441Z,99890.37
2019-05-26T16:17:13.654Z,99889.14
2019-05-26T16:19:41.883Z,99882.78
2019-05-26T16:22:10.106Z,99879.10
2019-05-26T16:24:38.318Z,99880.88
2019-05-26T16:27:18.828Z,99875.33
2019-05-26T16:29:36.443Z,99872.57
2019-05-26T16:32:04.633Z,99866.52
2019-05-26T16:34:32.821Z,99859.88
2019-05-26T16:37:01.184Z,99862.06
2019-05-26T16:39:37.062Z,99860.22
2019-05-26T16:41:59.254Z,99859.50
2019-05-26T16:44:27.760Z,99853.55
2019-05-26T16:46:57.089Z,99859.26
2019-05-26T16:49:25.444Z,99861.31
2019-05-26T16:51:53.720Z,99851.94
2019-05-26T16:54:21.923Z,99844.12
2019-05-26T16:56:50.059Z,99850.19
2019-05-26T16:59:18.347Z,99840.89
2019-05-26T17:01:46.448Z,99841.94
2019-05-26T17:04:14.658Z,99832.78
2019-05-26T17:06:42.887Z,99832.69
2019-05-26T17:09:11.429Z,99836.99
2019-05-26T17:11:39.634Z,99829.36
2019-05-26T17:14:07.829Z,99830.12
2019-05-26T17:16:35.952Z,99829.36
2019-05-26T17:19:04.118Z,99824.16
2019-05-26T17:21:32.353Z,99812.98
2019-05-26T17:24:00.528Z,99815.88
2019-05-26T17:26:28.816Z,99818.12
2019-05-26T17:28:56.951Z,99825.86
2019-05-26T17:31:25.140Z,99818.64
2019-05-26T17:33:53.357Z,99817.19
2019-05-26T17:36:21.572Z,99823.28
2019-05-26T17:38:49.788Z,99826.22
2019-05-26T17:41:17.891Z,99829.59
2019-05-26T17:43:46.087Z,99816.48
2019-05-26T17:46:15.244Z,99813.97
2019-05-26T17:48:43.653Z,99818.42
2019-05-26T17:51:11.847Z,99809.81
2019-05-26T17:53:40.014Z,99810.00
2019-05-26T17:56:08.184Z,99812.76
2019-05-26T17:58:36.392Z,99811.25
2019-05-26T18:01:04.704Z,99807.66
2019-05-26T18:03:32.917Z,99805.88
2019-05-26T18:06:01.168Z,99801.45
2019-05-26T18:08:29.371Z,99803.37
2019-05-26T18:10:57.704Z,99801.54
2019-05-26T18:13:28.213Z,99794.27
2019-05-26T18:15:56.370Z,99801.16
2019-05-26T18:18:24.596Z,99795.31
2019-05-26T18:20:52.852Z,99794.86
2019-05-26T18:23:21.060Z,99799.31
2019-05-26T18:25:49.217Z,99788.08
2019-05-26T18:28:17.445Z,99784.38
2019-05-26T18:30:45.633Z,99792.59
2019-05-26T18:33:13.905Z,99787.66
2019-05-26T18:35:42.071Z,99790.21
2019-05-26T18:38:10.238Z,99782.97
2019-05-26T18:40:38.376Z,99785.11
2019-05-26T18:43:06.570Z,99787.16
2019-05-26T18:45:34.873Z,99791.25
2019-05-26T18:48:03.933Z,99788.43
2019-05-26T18:50:32.251Z,99781.55
2019-05-26T18:53:02.092Z,99786.30
2019-05-26T18:55:31.472Z,99785.94
2019-05-26T18:57:59.615Z,99772.66
2019-05-26T19:00:31.022Z,99784.77
2019-05-26T19:02:56.792Z,99776.62
2019-05-26T19:05:34.524Z,99778.77
2019-05-26T19:07:55.325Z,99769.05
2019-05-26T19:10:23.620Z,99770.09
2019-05-26T19:12:51.824Z,99771.34
2019-05-26T19:15:20.118Z,99776.67
2019-05-26T19:17:48.318Z,99772.34
2019-05-26T19:20:17.419Z,99769.88
2019-05-26T19:22:45.666Z,99758.99
2019-05-26T19:25:13.848Z,99751.64
2019-05-26T19:27:42.044Z,99761.42
2019-05-26T19:30:10.943Z,99766.59
2019-05-26T19:32:39.410Z,99763.47
2019-05-26T19:35:07.733Z,99766.14
2019-05-26T19:37:35.887Z,99766.53
2019-05-26T19:40:04.549Z,99764.02
2019-05-26T19:42:32.734Z,99766.73
2019-05-26T19:45:01.019Z,99766.61
2019-05-26T19:47:29.315Z,99767.63
2019-05-26T19:49:57.567Z,99773.95
2019-05-26T19:52:25.708Z,99765.63
2019-05-26T19:54:53.917Z,99777.88
2019-05-26T19:57:22.251Z,99769.44
2019-05-26T19:59:50.411Z,99766.66
2019-05-26T20:02:19.149Z,99778.73
2019-05-26T20:04:47.546Z,99769.09
2019-05-26T20:07:15.703Z,99764.37
2019-05-26T20:09:43.944Z,99774.88
2019-05-26T20:12:12.066Z,99769.82
2019-05-26T20:14:40.216Z,99767.92
2019-05-26T20:17:08.445Z,99764.55
2019-05-26T20:19:36.749Z,99761.30
2019-05-26T20:22:05.165Z,99765.53
2019-05-26T20:24:33.617Z,99758.98
2019-05-26T20:27:01.854Z,99757.87
2019-05-26T20:29:30.101Z,99758.73
2019-05-26T20:31:58.290Z,99754.16
2019-05-26T20:34:26.675Z,99758.50
2019-05-26T20:36:54.845Z,99756.02
2019-05-26T20:39:23.253Z,99751.81
2019-05-26T20:41:51.387Z,99756.76
2019-05-26T20:44:19.695Z,99751.22
2019-05-26T20:46:47.846Z,99742.09
2019-05-26T20:49:16.048Z,99741.22
2019-05-26T20:51:44.265Z,99747.52
2019-05-26T20:54:12.501Z,99742.30
2019-05-26T20:56:40.781Z,99738.38
2019-05-26T20:59:08.925Z,99731.11
2019-05-26T21:01:37.215Z,99736.68
2019-05-26T21:04:05.514Z,99732.11
2019-05-26T21:06:33.712Z,99727.66
2019-05-26T21:09:01.915Z,99722.73
2019-05-26T21:11:30.132Z,99721.66
2019-05-26T21:13:58.275Z,99722.14
2019-05-26T21:16:26.502Z,99718.19
2019-05-26T21:18:54.675Z,99718.55
2019-05-26T21:21:22.842Z,99719.66
2019-05-26T21:23:51.012Z,99719.78
2019-05-26T21:26:19.161Z,99720.52
2019-05-26T21:28:47.378Z,99718.30
2019-05-26T21:31:15.596Z,99711.98
2019-05-26T21:33:43.851Z,99714.27
2019-05-26T21:36:12.010Z,99711.73
2019-05-26T21:38:40.236Z,99715.22
2019-05-26T21:41:08.377Z,99714.38
2019-05-26T21:43:36.545Z,99718.43
2019-05-26T21:46:04.714Z,99712.98
2019-05-26T21:48:34.799Z,99709.94
2019-05-26T21:51:02.856Z,99703.86
2019-05-26T21:53:30.994Z,99701.83
2019-05-26T21:55:59.172Z,99695.70
2019-05-26T21:58:27.376Z,99696.87
2019-05-26T22:00:55.667Z,99688.92
2019-05-26T22:03:24.857Z,99690.92
2019-05-26T22:05:53.086Z,99690.39
2019-05-26T22:08:21.250Z,99693.66
2019-05-26T22:10:49.383Z,99687.31
2019-05-26T22:13:17.478Z,99687.17
2019-05-26T22:15:45.657Z,99683.22
2019-05-26T22:18:13.810Z,99690.59
2019-05-26T22:20:41.924Z,99679.61
2019-05-26T22:23:10.033Z,99694.91
2019-05-26T22:25:38.166Z,99673.84
2019-05-26T22:28:06.288Z,99678.75
2019-05-26T22:30:34.466Z,99673.34
2019-05-26T22:33:04.002Z,99673.34
2019-05-26T22:35:32.285Z,99663.00
2019-05-26T22:38:01.720Z,99672.09
2019-05-26T22:40:29.826Z,99666.31
2019-05-26T22:42:58.019Z,99660.15
2019-05-26T22:45:26.141Z,99665.81
2019-05-26T22:47:54.287Z,99659.33
2019-05-26T22:50:22.509Z,99651.29
2019-05-26T22:52:50.638Z,99658.17
2019-05-26T22:55:18.783Z,99656.53
2019-05-26T22:57:46.957Z,99659.08
2019-05-26T23:00:15.549Z,99659.06
2019-05-26T23:02:43.729Z,99651.20
2019-05-26T23:05:12.305Z,99655.00
2019-05-26T23:07:40.487Z,99651.31
2019-05-26T23:10:08.935Z,99649.10
2019-05-26T23:12:37.151Z,99647.08
2019-05-26T23:15:05.738Z,99641.06
2019-05-26T23:17:33.861Z,99638.47
2019-05-26T23:20:02.014Z,99642.34
2019-05-26T23:22:30.795Z,99641.91
2019-05-26T23:24:58.982Z,99640.48
2019-05-26T23:27:27.089Z,99634.16
2019-05-26T23:29:55.261Z,99636.15
2019-05-26T23:32:23.345Z,99636.60
2019-05-26T23:34:51.464Z,99634.77
2019-05-26T23:37:19.790Z,99640.11
2019-05-26T23:39:47.966Z,99634.86
2019-05-26T23:42:16.090Z,99636.03
2019-05-26T23:44:44.273Z,99627.55
2019-05-26T23:47:12.451Z,99627.55
2019-05-26T23:49:40.829Z,99636.36
2019-05-26T23:52:08.931Z,99631.48
2019-05-26T23:54:37.116Z,99641.95
2019-05-26T23:57:05.227Z,99633.95
2019-05-26T23:59:33.358Z,99624.11
